METAR Data
IDs: Format: Raw Decoded Include TAF

Data at: 0150 UTC 01 Mar 2021

KTUL 010053Z 35008KT 10SM FEW190 BKN250 09/M02 A3003 RMK AO2 SLP165 T00941017